createdAt,value
2022-09-01T05:48:39.533Z,19.4
2022-09-01T05:51:51.452Z,19.4
2022-09-01T05:53:42.286Z,19.4
2022-09-01T05:54:14.491Z,19.4
2022-09-01T05:57:37.383Z,19.5
2022-09-01T06:02:08.622Z,19.5
2022-09-01T06:03:38.968Z,19.5
2022-09-01T06:07:07.633Z,19.5
2022-09-01T06:13:01.218Z,19.6
2022-09-01T06:14:34.729Z,19.6
2022-09-01T08:28:08.336Z,19.6
2022-09-01T08:33:39.015Z,21.1
2022-09-01T08:45:37.899Z,21.5
2022-09-01T08:49:28.203Z,21.7
2022-09-01T08:51:37.546Z,22
2022-09-01T08:54:39.498Z,22
2022-09-01T08:57:39.766Z,22.2
2022-09-01T08:58:20.529Z,22.2
2022-09-01T09:18:55.736Z,22.2
2022-09-01T09:20:22.469Z,22.4
2022-09-01T09:21:37.982Z,22.4
2022-09-01T09:24:40.783Z,22.7
2022-09-01T09:27:37.740Z,22.7
2022-09-01T09:29:30.400Z,22.8
2022-09-01T09:33:54.258Z,22.8
2022-09-01T09:35:32.148Z,23.4
2022-09-01T09:36:37.576Z,23.4
2022-09-01T09:39:37.742Z,23.5
2022-09-01T09:42:44.551Z,23.6
2022-09-01T09:45:41.625Z,23.6
2022-09-01T09:48:37.075Z,23.6
2022-09-01T09:51:02.588Z,23.6
2022-09-01T09:51:37.604Z,23.6
2022-09-01T09:54:36.988Z,23.6
2022-09-01T09:57:37.496Z,23.6
2022-09-01T10:03:21.961Z,24.2
2022-09-01T10:05:40.327Z,24.2
2022-09-01T10:06:37.141Z,24.2
2022-09-01T10:07:39.525Z,24.4
2022-09-01T10:09:19.051Z,24.4
2022-09-01T10:11:42.021Z,24.4
2022-09-01T10:12:37.876Z,24.4
2022-09-01T10:15:38.518Z,24.4
2022-09-01T10:18:39.173Z,24.4
2022-09-01T10:21:38.103Z,24.4
2022-09-01T10:25:33.069Z,24.4
2022-09-01T10:27:32.078Z,24.3
2022-09-01T10:28:23.476Z,24.3
2022-09-01T10:29:19.475Z,24.3
2022-09-01T10:33:38.301Z,24.4
2022-09-01T10:34:27.172Z,24.4
2022-09-01T10:36:38.367Z,24.4
2022-09-01T10:39:43.695Z,24.5
2022-09-01T10:41:21.682Z,24.5
2022-09-01T10:42:39.111Z,24.8
2022-09-01T10:45:32.193Z,24.8
2022-09-01T10:49:04.323Z,24.6
2022-09-01T10:49:04.473Z,24.6
2022-09-01T10:51:56.985Z,24.6
2022-09-01T10:52:16.700Z,24.6
2022-09-01T10:54:52.730Z,24.8
2022-09-01T10:57:43.265Z,25.1
2022-09-01T11:03:48.195Z,25.1
2022-09-01T11:06:14.117Z,25.1
2022-09-01T11:06:40.790Z,25.1
2022-09-01T11:09:38.820Z,24.7
2022-09-01T11:12:38.666Z,25.3
2022-09-01T11:15:38.039Z,25.3
2022-09-01T11:18:40.182Z,25.4
2022-09-01T11:21:38.808Z,25.4
2022-09-01T11:24:07.042Z,25.3
2022-09-01T11:24:40.464Z,25.3
2022-09-01T11:27:37.898Z,25.3
2022-09-01T11:28:20.266Z,25.3
2022-09-01T11:33:38.916Z,25.2
2022-09-01T11:36:37.994Z,25.2
2022-09-01T11:39:37.761Z,25.2
2022-09-01T11:41:08.092Z,25.2
2022-09-01T11:42:39.575Z,25.4
2022-09-01T11:44:23.856Z,25.4
2022-09-01T11:45:37.528Z,25.4
2022-09-01T11:48:19.574Z,25.9
2022-09-01T11:49:32.067Z,25.9
2022-09-01T11:51:37.269Z,25.9
2022-09-01T11:53:33.227Z,26.1
2022-09-01T11:54:38.612Z,26.1
2022-09-01T11:56:21.361Z,26.1
2022-09-01T11:57:37.403Z,26.3
2022-09-01T12:00:19.035Z,26.3
2022-09-01T12:03:38.298Z,26.2
2022-09-01T12:05:43.140Z,26.2
2022-09-01T12:06:38.693Z,26.2
2022-09-01T12:09:37.530Z,26.6
2022-09-01T12:12:32.215Z,26.7
2022-09-01T12:15:39.296Z,26.7
2022-09-01T12:18:39.705Z,27.1
2022-09-01T12:21:37.249Z,27.1
2022-09-01T12:24:37.314Z,27.1
2022-09-01T12:27:38.402Z,26.9
2022-09-01T12:30:03.881Z,26.9
2022-09-01T12:33:39.005Z,27.2
2022-09-01T12:36:10.451Z,27.2
2022-09-01T12:39:33.273Z,27.4
2022-09-01T12:41:48.806Z,27.4
2022-09-01T12:42:45.164Z,27.2
2022-09-01T12:45:37.500Z,27.2
2022-09-01T12:47:51.269Z,27
2022-09-01T12:48:34.234Z,27
2022-09-01T12:51:38.229Z,27
2022-09-01T12:54:37.212Z,26.7
2022-09-01T12:57:37.373Z,26.6
2022-09-01T13:03:37.898Z,26.6
2022-09-01T13:06:37.663Z,26.6
2022-09-01T13:09:37.746Z,26.8
2022-09-01T13:12:08.513Z,26.8
2022-09-01T13:12:37.652Z,26.4
2022-09-01T13:15:28.770Z,26.4
2022-09-01T13:19:12.229Z,26.4
2022-09-01T13:19:46.278Z,26.4
2022-09-01T13:24:15.849Z,25.7
2022-09-01T13:25:50.724Z,25.7
2022-09-01T13:27:37.720Z,25.7
2022-09-01T13:29:45.877Z,25.7
2022-09-01T13:34:25.423Z,25.7
2022-09-01T13:36:53.057Z,25.7
2022-09-01T13:39:38.414Z,25.7
2022-09-01T13:42:37.241Z,25.7
2022-09-01T13:45:38.034Z,25.7
2022-09-01T13:49:42.312Z,25.7
2022-09-01T13:51:18.636Z,25.7
2022-09-01T13:51:37.393Z,25.7
2022-09-01T13:52:44.331Z,25.7
2022-09-01T13:54:37.176Z,25.7
2022-09-01T13:57:08.068Z,25.7
2022-09-01T13:57:38.034Z,25.7
2022-09-01T14:00:02.881Z,25.7
2022-09-01T14:00:53.122Z,25.7
2022-09-01T14:03:38.256Z,25.7
2022-09-01T14:06:37.936Z,25.7
2022-09-01T14:09:37.639Z,25.7
2022-09-01T14:11:27.209Z,25.7
2022-09-01T14:12:37.999Z,25.7
2022-09-01T14:14:12.333Z,25.7
2022-09-01T14:15:37.840Z,25.7
2022-09-01T14:18:37.436Z,25.7
2022-09-01T14:20:55.761Z,25.7
2022-09-01T14:24:41.481Z,20.7
2022-09-01T14:26:28.739Z,20.7
2022-09-01T14:27:45.311Z,20.8
2022-09-01T14:31:00.827Z,20.8
2022-09-01T14:32:53.953Z,20.8
2022-09-01T14:36:37.816Z,20.8
2022-09-01T14:38:11.691Z,20.8
2022-09-01T14:39:37.139Z,20.8
2022-09-01T14:42:37.677Z,20.8
2022-09-01T14:44:31.290Z,20.8
2022-09-01T14:45:37.446Z,20.8
2022-09-01T14:48:37.629Z,20.8
2022-09-01T14:49:25.130Z,20.8
2022-09-01T14:50:12.334Z,20.8
2022-09-01T14:52:12.658Z,20.8
2022-09-01T14:54:37.158Z,20.8
2022-09-01T14:55:57.223Z,20.8
2022-09-01T14:57:39.159Z,20.8
2022-09-01T15:03:37.912Z,20.8
2022-09-01T15:04:41.025Z,20.8
2022-09-01T15:05:41.125Z,20.8
2022-09-01T15:06:37.432Z,20.8
2022-09-01T15:09:38.114Z,20.8
2022-09-01T15:12:37.549Z,20.8
2022-09-01T15:15:37.467Z,20.8
2022-09-01T15:18:22.641Z,20.8
2022-09-01T15:21:37.566Z,20.8
2022-09-01T15:24:37.465Z,20.8
2022-09-01T15:25:39.973Z,20.8
2022-09-01T15:27:41.982Z,20.8
2022-09-01T15:29:53.985Z,20.8
2022-09-01T15:33:38.990Z,20.8
2022-09-01T15:35:17.004Z,20.8
2022-09-01T15:36:38.104Z,20.8
2022-09-01T15:39:15.289Z,20.8
2022-09-01T16:09:40.427Z,20.8
2022-09-01T16:12:37.366Z,20.8
2022-09-01T16:13:25.627Z,20.8
2022-09-01T16:15:38.004Z,20.8
2022-09-01T16:18:36.948Z,20.8
2022-09-01T16:21:09.350Z,20.8
2022-09-01T16:24:37.295Z,20.8
2022-09-01T16:27:30.883Z,20.8
2022-09-01T16:36:34.253Z,20.8
2022-09-01T16:39:37.676Z,20.8
2022-09-01T16:40:16.444Z,20.8
2022-09-01T16:42:27.654Z,20.8
2022-09-01T16:45:30.997Z,20.8
2022-09-01T16:48:13.445Z,20.8
2022-09-01T16:49:57.425Z,20.8
2022-09-01T16:51:28.340Z,20.8
2022-09-01T16:54:37.800Z,20.8
2022-09-01T16:57:37.321Z,20.8
2022-09-01T16:59:56.303Z,20.8
2022-09-01T17:03:44.224Z,20.8
2022-09-01T17:04:08.340Z,20.8
2022-09-01T17:06:37.438Z,20.8
2022-09-01T17:08:30.602Z,20.8
2022-09-01T17:09:26.915Z,20.8
2022-09-01T17:12:37.623Z,20.8
2022-09-01T17:15:38.906Z,20.8
2022-09-01T17:18:37.293Z,20.8
2022-09-01T17:21:17.922Z,20.8
2022-09-01T17:24:38.027Z,20.8
2022-09-01T17:25:40.871Z,20.8
2022-09-01T17:27:37.130Z,20.8
2022-09-01T17:28:17.478Z,20.8
2022-09-01T17:33:37.830Z,20.8
2022-09-01T17:34:33.183Z,20.8
2022-09-01T17:36:37.840Z,20.8
2022-09-01T17:39:37.843Z,20.8
2022-09-01T17:42:37.306Z,20.8
2022-09-01T17:44:32.271Z,20.8
2022-09-01T17:45:40.020Z,20.8
2022-09-01T17:46:24.095Z,20.8
2022-09-01T17:47:20.771Z,20.8
2022-09-01T17:48:36.340Z,20.8
2022-09-01T17:50:19.506Z,20.8
2022-09-01T17:51:38.137Z,20.8
2022-09-01T17:54:37.653Z,20.8
2022-09-01T17:55:27.626Z,20.8
2022-09-01T17:57:37.477Z,20.8
2022-09-01T18:00:13.997Z,20.8
2022-09-01T18:03:37.135Z,20.8
2022-09-01T18:06:14.929Z,20.8
2022-09-01T18:12:37.779Z,20.8
2022-09-01T18:13:54.755Z,20.8
2022-09-01T18:14:21.477Z,20.8
2022-09-01T18:15:25.615Z,20.8
2022-09-01T18:18:37.531Z,20.8
2022-09-01T18:21:37.457Z,20.8
2022-09-01T18:23:42.255Z,20.8
2022-09-01T18:24:37.144Z,20.8
2022-09-01T18:27:37.802Z,20.8
2022-09-01T18:30:53.844Z,20.8
2022-09-01T18:33:37.922Z,20.8
2022-09-01T18:36:37.859Z,20.8
2022-09-01T18:39:37.535Z,20.8
2022-09-01T18:40:52.703Z,20.8
2022-09-01T18:42:12.286Z,20.8
2022-09-01T18:43:23.370Z,20.8
2022-09-01T18:45:37.423Z,20.8
2022-09-01T18:48:37.302Z,20.8
2022-09-01T18:49:31.195Z,20.8
2022-09-01T18:51:37.292Z,20.8
2022-09-01T18:53:56.629Z,20.8
2022-09-01T18:54:36.933Z,20.8
2022-09-01T18:57:37.284Z,20.8
2022-09-01T18:59:37.755Z,20.8
2022-09-01T19:03:37.326Z,20.8
2022-09-01T19:06:11.181Z,20.8
2022-09-01T19:09:32.481Z,20.8
2022-09-01T19:12:10.753Z,20.8
2022-09-01T19:12:42.546Z,20.8
2022-09-01T19:15:38.592Z,20.8
2022-09-01T19:17:44.688Z,20.8
2022-09-01T19:18:36.971Z,20.8
2022-09-01T19:20:40.061Z,20.8
2022-09-01T19:21:37.633Z,20.8
2022-09-01T19:23:41.471Z,20.8
2022-09-01T19:24:37.102Z,20.8
2022-09-01T19:27:35.593Z,20.8
2022-09-01T19:31:53.436Z,20.8
2022-09-01T19:33:38.493Z,20.8
2022-09-01T19:35:45.399Z,20.8
2022-09-01T19:36:37.172Z,20.8
2022-09-01T19:38:40.382Z,20.8
2022-09-01T19:39:37.611Z,20.8
2022-09-01T19:42:23.975Z,20.8
2022-09-01T19:43:23.060Z,20.8
2022-09-01T19:45:37.652Z,20.8
2022-09-01T19:47:11.671Z,20.8
2022-09-01T19:51:37.231Z,20.8
2022-09-01T19:53:44.849Z,20.8
2022-09-01T19:54:38.281Z,20.8
2022-09-01T19:57:37.322Z,20.8
2022-09-01T20:03:37.704Z,20.8
2022-09-01T20:06:37.248Z,20.8
2022-09-01T20:09:37.863Z,20.8
2022-09-01T20:12:37.555Z,20.8
2022-09-01T20:13:36.293Z,20.8
2022-09-01T20:14:48.319Z,20.8
2022-09-01T20:15:37.478Z,20.8
2022-09-01T20:18:37.894Z,20.8
2022-09-01T20:19:49.066Z,20.8
2022-09-01T20:21:37.873Z,20.8
2022-09-01T20:23:44.262Z,20.8
2022-09-01T20:24:37.312Z,20.8
2022-09-01T20:26:03.838Z,20.8
2022-09-01T20:27:38.096Z,20.8
2022-09-01T20:30:52.234Z,20.8
2022-09-01T20:33:37.340Z,20.8
2022-09-01T20:36:37.234Z,20.8
2022-09-01T20:38:56.355Z,20.8
2022-09-01T20:39:36.999Z,20.8
2022-09-01T20:42:37.225Z,20.8
2022-09-01T20:43:42.174Z,20.8
2022-09-01T20:45:16.421Z,20.8
2022-09-01T20:48:37.784Z,20.8
2022-09-01T20:51:37.475Z,20.8
2022-09-01T20:53:39.353Z,20.8
2022-09-01T20:54:37.442Z,20.8
2022-09-01T20:57:37.012Z,20.8
2022-09-01T20:59:54.047Z,20.8
2022-09-01T21:00:56.008Z,20.8
2022-09-01T21:03:38.553Z,20.8
2022-09-01T21:06:37.142Z,20.8
2022-09-01T21:08:40.884Z,20.8
2022-09-01T21:09:37.780Z,20.8
2022-09-01T21:12:37.313Z,20.8
2022-09-01T21:15:36.586Z,20.8
2022-09-01T21:16:25.749Z,20.8
2022-09-01T21:18:38.032Z,20.8
2022-09-01T21:20:05.095Z,20.8
2022-09-01T21:21:37.546Z,20.8
2022-09-01T21:24:37.275Z,20.8
2022-09-01T21:27:38.251Z,20.8
2022-09-01T21:31:02.696Z,20.8
2022-09-01T21:31:47.989Z,20.8
2022-09-01T21:32:36.898Z,20.8
2022-09-01T21:33:37.379Z,20.8
2022-09-01T21:36:38.131Z,20.8
2022-09-01T21:37:50.730Z,20.8
2022-09-01T21:39:37.888Z,20.8
2022-09-01T21:42:37.848Z,20.8
2022-09-01T21:44:43.483Z,20.8
2022-09-01T21:45:37.879Z,20.8
2022-09-01T21:48:20.444Z,20.8
2022-09-01T21:50:10.502Z,20.8
2022-09-01T21:51:37.535Z,20.8
2022-09-01T21:53:12.659Z,20.8
2022-09-01T21:54:37.027Z,20.8
2022-09-01T21:56:58.141Z,20.8
2022-09-01T21:57:37.383Z,20.8
